createdAt,value
2022-10-07T00:01:39.245Z,1.70
2022-10-07T00:04:07.785Z,2.00
2022-10-07T00:06:37.365Z,1.98
2022-10-07T00:09:05.803Z,2.10
2022-10-07T00:11:34.120Z,1.77
2022-10-07T00:14:05.057Z,1.95
2022-10-07T00:16:35.862Z,2.17
2022-10-07T00:19:07.724Z,2.58
2022-10-07T00:21:39.172Z,2.17
2022-10-07T00:24:08.964Z,2.42
2022-10-07T00:26:37.960Z,2.50
2022-10-07T00:29:07.349Z,2.40
2022-10-07T00:31:37.506Z,2.50
2022-10-07T00:34:06.395Z,2.20
2022-10-07T00:36:38.826Z,2.05
2022-10-07T00:39:10.119Z,2.00
2022-10-07T00:41:41.185Z,2.38
2022-10-07T00:44:44.544Z,2.67
2022-10-07T00:47:24.901Z,7.32
2022-10-07T00:49:57.819Z,1.88
2022-10-07T00:52:31.198Z,1.45
2022-10-07T00:55:04.149Z,1.55
2022-10-07T00:57:33.546Z,1.40
2022-10-07T01:00:03.889Z,1.38
2022-10-07T01:02:33.051Z,1.23
2022-10-07T01:05:04.827Z,1.25
2022-10-07T01:07:35.376Z,1.20
2022-10-07T01:10:05.950Z,1.20
2022-10-07T01:12:49.776Z,1.27
2022-10-07T01:15:24.873Z,1.10
2022-10-07T01:18:01.369Z,1.60
2022-10-07T01:20:35.710Z,1.58
2022-10-07T01:23:19.136Z,0.77
2022-10-07T01:26:04.231Z,1.27
2022-10-07T01:28:40.486Z,1.40
2022-10-07T01:31:12.749Z,1.30
2022-10-07T01:33:44.480Z,1.63
2022-10-07T01:36:17.851Z,2.00
2022-10-07T01:38:52.268Z,2.08
2022-10-07T01:41:23.149Z,1.75
2022-10-07T01:43:55.874Z,1.80
2022-10-07T01:46:27.643Z,1.75
2022-10-07T01:49:00.216Z,1.35
2022-10-07T01:51:34.314Z,1.48
2022-10-07T01:54:14.391Z,1.33
2022-10-07T01:56:51.270Z,1.83
2022-10-07T01:59:43.461Z,1.35
2022-10-07T02:02:21.486Z,1.40
2022-10-07T02:04:57.143Z,1.73
2022-10-07T02:07:35.641Z,1.50
2022-10-07T02:10:13.543Z,1.42
2022-10-07T02:12:50.030Z,1.48
2022-10-07T02:15:26.178Z,1.58
2022-10-07T02:17:58.761Z,1.95
2022-10-07T02:20:32.127Z,1.85
2022-10-07T02:23:04.937Z,2.30
2022-10-07T02:25:38.687Z,2.08
2022-10-07T02:28:09.664Z,2.00
2022-10-07T02:30:42.788Z,2.17
2022-10-07T02:33:12.388Z,2.03
2022-10-07T02:35:46.623Z,2.08
2022-10-07T02:38:17.757Z,2.10
2022-10-07T02:40:58.041Z,1.90
2022-10-07T02:43:32.223Z,1.83
2022-10-07T02:46:08.201Z,2.00
2022-10-07T02:48:42.064Z,1.88
2022-10-07T02:51:21.027Z,1.20
2022-10-07T02:53:54.061Z,1.52
2022-10-07T02:56:26.037Z,1.60
2022-10-07T02:58:54.963Z,1.50
2022-10-07T03:01:31.860Z,1.88
2022-10-07T03:04:00.886Z,2.42
2022-10-07T03:06:30.468Z,1.83
2022-10-07T03:09:01.454Z,2.13
2022-10-07T03:11:29.877Z,1.70
2022-10-07T03:13:58.857Z,2.17
2022-10-07T03:16:29.142Z,2.30
2022-10-07T03:18:59.043Z,2.20
2022-10-07T03:21:34.298Z,2.13
2022-10-07T03:24:06.282Z,2.20
2022-10-07T03:26:43.411Z,2.47
2022-10-07T03:29:14.166Z,1.88
2022-10-07T03:31:44.449Z,1.95
2022-10-07T03:34:13.343Z,1.58
2022-10-07T03:36:44.137Z,2.00
2022-10-07T03:39:13.344Z,1.73
2022-10-07T03:41:43.530Z,1.63
2022-10-07T03:44:12.477Z,2.00
2022-10-07T03:46:41.211Z,1.90
2022-10-07T03:49:11.788Z,1.65
2022-10-07T03:51:43.299Z,1.90
2022-10-07T03:54:11.875Z,1.88
2022-10-07T03:56:41.433Z,1.73
2022-10-07T03:59:09.774Z,1.85
2022-10-07T04:01:39.484Z,1.73
2022-10-07T04:04:09.247Z,1.77
2022-10-07T04:06:40.394Z,1.83
2022-10-07T04:09:14.326Z,1.98
2022-10-07T04:11:43.608Z,1.77
2022-10-07T04:14:12.836Z,2.00
2022-10-07T04:16:42.363Z,1.83
2022-10-07T04:19:19.806Z,2.00
2022-10-07T04:21:49.828Z,1.35
2022-10-07T04:24:19.626Z,1.70
2022-10-07T04:26:48.804Z,2.10
2022-10-07T04:29:17.456Z,2.10
2022-10-07T04:31:47.175Z,2.00
2022-10-07T04:34:16.862Z,2.28
2022-10-07T04:36:45.462Z,1.73
2022-10-07T04:39:20.207Z,2.90
2022-10-07T04:41:54.999Z,3.28
2022-10-07T04:44:29.266Z,3.03
2022-10-07T04:47:07.641Z,5.05
2022-10-07T04:49:40.060Z,3.53
2022-10-07T04:52:10.663Z,2.80
2022-10-07T04:54:43.159Z,2.30
2022-10-07T04:57:13.525Z,2.22
2022-10-07T04:59:44.160Z,1.90
2022-10-07T05:02:16.449Z,1.65
2022-10-07T05:04:47.110Z,1.80
2022-10-07T05:07:17.105Z,2.03
2022-10-07T05:09:51.102Z,1.95
2022-10-07T05:12:21.146Z,2.10
2022-10-07T05:14:51.137Z,1.73
2022-10-07T05:17:20.330Z,1.60
2022-10-07T05:19:49.500Z,1.70
2022-10-07T05:22:17.927Z,1.45
2022-10-07T05:24:47.511Z,1.73
2022-10-07T05:27:18.448Z,2.10
2022-10-07T05:29:47.093Z,2.22
2022-10-07T05:32:17.397Z,2.83
2022-10-07T05:34:47.259Z,2.95
2022-10-07T05:37:16.147Z,2.63
2022-10-07T05:39:45.196Z,3.25
2022-10-07T05:42:19.784Z,3.13
2022-10-07T05:45:08.528Z,3.70
2022-10-07T05:47:37.025Z,3.55
2022-10-07T05:50:07.235Z,3.38
2022-10-07T05:52:39.702Z,3.25
2022-10-07T05:55:09.291Z,3.10
2022-10-07T05:57:40.007Z,3.20
2022-10-07T06:00:10.530Z,2.60
2022-10-07T06:02:46.709Z,2.55
2022-10-07T06:05:15.710Z,2.83
2022-10-07T06:07:44.409Z,3.13
2022-10-07T06:10:30.823Z,2.63
2022-10-07T06:13:09.424Z,2.22
2022-10-07T06:15:41.097Z,2.20
2022-10-07T06:18:09.817Z,2.70
2022-10-07T06:20:38.381Z,2.03
2022-10-07T06:23:07.894Z,1.80
2022-10-07T06:25:37.615Z,1.92
2022-10-07T06:28:07.380Z,2.15
2022-10-07T06:30:38.658Z,2.30
2022-10-07T06:33:07.888Z,1.67
2022-10-07T06:35:37.185Z,2.25
2022-10-07T06:38:07.140Z,2.10
2022-10-07T06:40:36.368Z,1.98
2022-10-07T06:43:04.785Z,2.17
2022-10-07T06:45:44.858Z,1.80
2022-10-07T06:48:14.803Z,2.25
2022-10-07T06:50:51.718Z,2.40
2022-10-07T06:53:21.510Z,1.80
2022-10-07T06:55:54.592Z,2.00
2022-10-07T06:58:23.322Z,2.88
2022-10-07T07:00:55.110Z,2.10
2022-10-07T07:03:25.046Z,2.10
2022-10-07T07:05:55.325Z,2.83
2022-10-07T07:08:31.020Z,2.78
2022-10-07T07:11:04.249Z,2.80
2022-10-07T07:13:36.162Z,2.60
2022-10-07T07:16:07.222Z,2.08
2022-10-07T07:18:36.468Z,2.50
2022-10-07T07:21:07.917Z,2.70
2022-10-07T07:23:37.229Z,3.55
2022-10-07T07:26:06.605Z,2.40
2022-10-07T07:28:35.640Z,2.42
2022-10-07T07:31:10.375Z,2.50
2022-10-07T07:33:39.855Z,2.72
2022-10-07T07:36:16.621Z,2.30
2022-10-07T07:38:53.131Z,2.28
2022-10-07T07:41:26.203Z,2.40
2022-10-07T07:43:57.317Z,2.33
2022-10-07T07:46:33.875Z,2.05
2022-10-07T07:49:04.839Z,2.00
2022-10-07T07:51:35.693Z,2.50
2022-10-07T07:54:06.647Z,2.30
2022-10-07T07:56:35.421Z,2.28
2022-10-07T07:59:04.816Z,2.33
2022-10-07T08:01:35.975Z,2.63
2022-10-07T08:04:06.122Z,1.90
2022-10-07T08:06:36.122Z,1.60
2022-10-07T08:09:06.602Z,2.10
2022-10-07T08:11:36.259Z,2.15
2022-10-07T08:14:08.364Z,2.00
2022-10-07T08:16:43.436Z,1.70
2022-10-07T08:19:13.049Z,2.20
2022-10-07T08:21:41.558Z,1.70
2022-10-07T08:24:18.426Z,1.83
2022-10-07T08:26:48.625Z,2.15
2022-10-07T08:29:18.710Z,2.10
2022-10-07T08:31:48.958Z,2.28
2022-10-07T08:34:17.541Z,1.95
2022-10-07T08:36:48.155Z,2.13
2022-10-07T08:39:16.793Z,1.90
2022-10-07T08:41:59.309Z,1.90
2022-10-07T08:44:32.035Z,1.85
2022-10-07T08:47:12.070Z,1.80
2022-10-07T08:49:50.409Z,2.33
2022-10-07T08:52:29.890Z,1.92
2022-10-07T08:54:59.603Z,1.90
2022-10-07T08:57:47.667Z,2.00
2022-10-07T09:00:22.219Z,2.08
2022-10-07T09:03:08.038Z,2.15
2022-10-07T09:05:42.891Z,2.67
2022-10-07T09:08:18.883Z,2.10
2022-10-07T09:10:50.502Z,2.13
2022-10-07T09:13:21.873Z,1.95
2022-10-07T09:16:13.048Z,2.00
2022-10-07T09:18:48.258Z,2.25
2022-10-07T09:21:23.407Z,2.10
2022-10-07T09:23:56.658Z,2.22
2022-10-07T09:26:28.439Z,2.30
2022-10-07T09:28:57.892Z,2.38
2022-10-07T09:31:26.903Z,2.60
2022-10-07T09:33:56.661Z,2.35
2022-10-07T09:36:26.460Z,2.60
2022-10-07T09:38:54.918Z,2.97
2022-10-07T09:41:31.934Z,2.72
2022-10-07T09:44:04.949Z,2.58
2022-10-07T09:46:46.639Z,3.60
2022-10-07T09:49:41.181Z,2.80
2022-10-07T09:52:18.628Z,3.03
2022-10-07T09:54:51.699Z,2.67
2022-10-07T09:57:30.985Z,2.40
2022-10-07T10:00:32.455Z,2.60
2022-10-07T10:03:07.820Z,3.00
2022-10-07T10:05:40.991Z,2.85
2022-10-07T10:08:25.141Z,2.47
2022-10-07T10:10:58.642Z,2.42
2022-10-07T10:13:31.987Z,2.75
2022-10-07T10:16:04.673Z,2.45
2022-10-07T10:18:37.380Z,2.80
2022-10-07T10:21:21.831Z,2.28
2022-10-07T10:23:53.613Z,2.38
2022-10-07T10:26:45.178Z,2.17
2022-10-07T10:29:25.238Z,2.28
2022-10-07T10:32:25.731Z,1.95
2022-10-07T10:35:02.686Z,2.17
2022-10-07T10:37:52.666Z,2.17
2022-10-07T10:40:27.247Z,2.33
2022-10-07T10:43:06.725Z,2.25
2022-10-07T10:45:38.944Z,2.33
2022-10-07T10:48:29.508Z,2.00
2022-10-07T10:51:10.204Z,1.77
2022-10-07T10:53:48.680Z,1.77
2022-10-07T10:56:29.875Z,1.88
2022-10-07T10:59:15.006Z,1.85
2022-10-07T11:01:46.370Z,1.80
2022-10-07T11:04:33.969Z,1.60
2022-10-07T11:07:09.617Z,1.60
2022-10-07T11:09:43.572Z,1.65
2022-10-07T11:12:27.012Z,1.52
2022-10-07T11:15:00.340Z,1.67
2022-10-07T11:17:32.502Z,1.20
2022-10-07T11:20:13.999Z,1.15
2022-10-07T11:22:50.872Z,1.23
2022-10-07T11:25:30.216Z,1.13
2022-10-07T11:28:17.984Z,1.20
2022-10-07T11:30:53.460Z,1.52
2022-10-07T11:33:32.250Z,1.63
2022-10-07T11:36:08.276Z,2.00
2022-10-07T11:38:38.950Z,1.27
2022-10-07T11:41:16.829Z,1.20
2022-10-07T11:43:47.463Z,1.42
2022-10-07T11:46:21.269Z,1.30
2022-10-07T11:48:53.638Z,1.38
2022-10-07T11:51:25.787Z,1.42
2022-10-07T11:54:06.434Z,1.65
2022-10-07T11:56:39.218Z,1.35
2022-10-07T11:59:08.525Z,1.40
2022-10-07T12:01:55.367Z,1.70
2022-10-07T12:04:38.369Z,1.50
2022-10-07T12:07:37.201Z,1.52
2022-10-07T12:10:28.650Z,1.40
2022-10-07T12:13:18.587Z,1.20
2022-10-07T12:15:47.501Z,1.50
2022-10-07T12:18:27.897Z,1.58
2022-10-07T12:21:05.932Z,1.50
2022-10-07T12:23:43.710Z,1.52
2022-10-07T12:26:52.550Z,1.40
2022-10-07T12:29:30.129Z,1.70
2022-10-07T12:31:59.861Z,1.38
2022-10-07T12:34:36.195Z,1.70
2022-10-07T12:37:36.925Z,1.17
2022-10-07T12:40:16.613Z,1.42
2022-10-07T12:42:53.186Z,1.60
2022-10-07T12:45:26.426Z,1.45
2022-10-07T12:47:58.536Z,1.20
2022-10-07T12:50:31.865Z,1.67
2022-10-07T12:53:04.123Z,1.42
2022-10-07T12:55:37.281Z,1.20
2022-10-07T12:58:34.655Z,1.58
2022-10-07T13:01:19.998Z,1.27
2022-10-07T13:04:14.476Z,1.77
2022-10-07T13:07:21.798Z,1.10
2022-10-07T13:10:23.102Z,1.02
2022-10-07T13:12:53.148Z,5.22
2022-10-07T13:15:35.971Z,1.23
2022-10-07T13:18:15.193Z,1.70
2022-10-07T13:20:59.909Z,1.27
2022-10-07T13:23:32.023Z,1.38
2022-10-07T13:26:02.938Z,1.42
2022-10-07T13:28:44.412Z,1.83
2022-10-07T13:31:17.320Z,1.90
2022-10-07T13:33:48.611Z,1.75
2022-10-07T13:36:24.755Z,1.70
2022-10-07T13:38:55.587Z,1.70
2022-10-07T13:41:29.292Z,1.40
2022-10-07T13:44:01.443Z,1.83
2022-10-07T13:46:32.916Z,1.58
2022-10-07T13:49:04.503Z,1.23
2022-10-07T13:51:36.861Z,1.60
2022-10-07T13:54:08.926Z,1.73
2022-10-07T13:56:41.069Z,1.50
2022-10-07T13:59:18.546Z,1.98
2022-10-07T14:01:49.918Z,1.75
2022-10-07T14:04:26.825Z,1.60
2022-10-07T14:06:59.350Z,1.85
2022-10-07T14:09:46.412Z,1.55
2022-10-07T14:12:19.696Z,2.17
2022-10-07T14:14:49.985Z,1.40
2022-10-07T14:17:28.345Z,2.00
2022-10-07T14:20:05.526Z,1.92
2022-10-07T14:22:39.233Z,2.55
2022-10-07T14:25:18.374Z,1.73
2022-10-07T14:27:56.702Z,1.88
2022-10-07T14:30:56.417Z,2.13
2022-10-07T14:34:05.591Z,1.70
2022-10-07T14:36:36.155Z,1.98
2022-10-07T14:39:23.780Z,1.70
2022-10-07T14:41:52.677Z,1.52
2022-10-07T14:44:21.644Z,1.60
2022-10-07T14:46:50.169Z,2.20
2022-10-07T14:49:32.925Z,1.60
2022-10-07T14:52:03.744Z,1.60
2022-10-07T14:54:33.353Z,1.85
2022-10-07T14:57:02.022Z,1.63
2022-10-07T14:59:30.629Z,1.98
2022-10-07T15:01:59.294Z,1.65
2022-10-07T15:04:27.730Z,1.73
2022-10-07T15:06:56.478Z,1.83
2022-10-07T15:09:26.218Z,2.00
2022-10-07T15:11:54.836Z,1.90
2022-10-07T15:14:23.951Z,1.90
2022-10-07T15:16:52.268Z,2.00
2022-10-07T15:19:21.030Z,2.20
2022-10-07T15:21:49.626Z,2.55
2022-10-07T15:24:19.324Z,2.25
2022-10-07T15:26:48.851Z,2.30
2022-10-07T15:29:18.018Z,2.35
2022-10-07T15:31:46.479Z,2.17
2022-10-07T15:34:15.750Z,2.63
2022-10-07T15:36:44.986Z,2.33
2022-10-07T15:39:13.505Z,2.20
2022-10-07T15:41:43.788Z,2.60
2022-10-07T15:44:17.138Z,1.98
2022-10-07T15:46:47.573Z,2.67
2022-10-07T15:49:17.453Z,2.72
2022-10-07T15:51:47.351Z,2.28
2022-10-07T15:54:16.053Z,2.70
2022-10-07T15:56:45.481Z,2.70
2022-10-07T15:59:15.212Z,4.00
2022-10-07T16:01:44.485Z,2.80
2022-10-07T16:04:14.198Z,2.40
2022-10-07T16:06:49.783Z,2.03
2022-10-07T16:09:19.057Z,2.30
2022-10-07T16:11:47.853Z,2.20
2022-10-07T16:14:17.844Z,2.20
2022-10-07T16:16:46.393Z,2.28
2022-10-07T16:19:15.049Z,2.08
2022-10-07T16:21:44.400Z,2.47
2022-10-07T16:24:15.978Z,3.10
2022-10-07T16:26:45.379Z,2.60
2022-10-07T16:29:33.414Z,2.53
2022-10-07T16:32:03.730Z,2.67
2022-10-07T16:34:32.505Z,2.38
2022-10-07T16:37:01.394Z,2.70
2022-10-07T16:39:29.786Z,2.22
2022-10-07T16:41:59.830Z,2.50
2022-10-07T16:44:29.532Z,2.22
2022-10-07T16:46:59.477Z,2.33
2022-10-07T16:49:30.222Z,2.58
2022-10-07T16:51:59.722Z,2.83
2022-10-07T16:54:29.769Z,3.83
2022-10-07T16:56:58.491Z,3.20
2022-10-07T16:59:27.652Z,3.53
2022-10-07T17:02:00.016Z,3.53
2022-10-07T17:04:30.475Z,3.25
2022-10-07T17:06:59.151Z,4.00
2022-10-07T17:09:27.746Z,3.20
2022-10-07T17:11:57.598Z,3.10
2022-10-07T17:14:26.599Z,3.00
2022-10-07T17:16:58.024Z,3.05
2022-10-07T17:19:28.361Z,3.08
2022-10-07T17:21:59.620Z,2.80
2022-10-07T17:24:28.389Z,3.03
2022-10-07T17:26:56.970Z,2.83
2022-10-07T17:29:26.400Z,3.05
2022-10-07T17:31:55.046Z,3.40
2022-10-07T17:34:24.097Z,3.20
2022-10-07T17:36:54.280Z,2.88
2022-10-07T17:39:24.656Z,3.28
2022-10-07T17:41:53.412Z,3.45
2022-10-07T17:44:22.014Z,3.47
2022-10-07T17:46:50.928Z,3.35
2022-10-07T17:49:19.828Z,3.63
2022-10-07T17:51:48.306Z,3.78
2022-10-07T17:54:18.206Z,3.50
2022-10-07T17:56:47.917Z,4.03
2022-10-07T17:59:16.922Z,3.33
2022-10-07T18:01:45.428Z,3.60
2022-10-07T18:04:19.885Z,4.03
2022-10-07T18:06:51.211Z,3.97
2022-10-07T18:09:21.368Z,4.28
2022-10-07T18:12:09.481Z,4.22
2022-10-07T18:14:55.519Z,3.95
2022-10-07T18:17:24.995Z,3.78
2022-10-07T18:19:53.636Z,4.50
2022-10-07T18:22:22.439Z,3.90
2022-10-07T18:24:50.807Z,4.03
2022-10-07T18:27:27.378Z,3.83
2022-10-07T18:29:56.619Z,3.92
2022-10-07T18:32:25.250Z,4.20
2022-10-07T18:34:56.734Z,3.85
2022-10-07T18:37:29.005Z,3.75
2022-10-07T18:39:58.940Z,4.18
2022-10-07T18:42:28.807Z,3.72
2022-10-07T18:44:57.300Z,4.00
2022-10-07T18:47:25.646Z,3.88
2022-10-07T18:49:57.175Z,4.00
2022-10-07T18:52:25.930Z,3.90
2022-10-07T18:54:54.258Z,4.35
2022-10-07T18:57:22.594Z,4.25
2022-10-07T18:59:52.334Z,3.80
2022-10-07T19:02:21.068Z,4.40
2022-10-07T19:04:49.524Z,5.10
2022-10-07T19:07:18.117Z,4.18
2022-10-07T19:09:46.272Z,3.97
2022-10-07T19:12:28.698Z,4.20
2022-10-07T19:14:58.441Z,3.97
2022-10-07T19:17:28.887Z,4.28
2022-10-07T19:20:01.432Z,5.30
2022-10-07T19:22:30.095Z,4.25
2022-10-07T19:25:15.663Z,5.35
2022-10-07T19:27:44.443Z,7.05
2022-10-07T19:30:14.369Z,6.93
2022-10-07T19:32:42.690Z,6.18
2022-10-07T19:35:11.548Z,5.93
2022-10-07T19:37:41.892Z,5.50
2022-10-07T19:40:11.590Z,5.10
2022-10-07T19:42:39.762Z,5.50
2022-10-07T19:45:10.287Z,4.85
2022-10-07T19:47:40.164Z,4.90
2022-10-07T19:50:09.178Z,5.50
2022-10-07T19:52:37.279Z,5.53
2022-10-07T19:55:06.830Z,5.88
2022-10-07T19:57:35.520Z,6.10
2022-10-07T20:00:04.327Z,6.65
2022-10-07T20:02:44.287Z,7.15
2022-10-07T20:05:13.132Z,6.20
2022-10-07T20:07:41.865Z,6.10
2022-10-07T20:10:10.233Z,5.53
2022-10-07T20:12:40.655Z,5.30
2022-10-07T20:15:10.109Z,5.45
2022-10-07T20:17:39.787Z,5.50
2022-10-07T20:20:11.401Z,5.45
2022-10-07T20:22:40.188Z,5.72
2022-10-07T20:25:09.776Z,5.47
2022-10-07T20:28:02.989Z,6.10
2022-10-07T20:31:10.243Z,5.43
2022-10-07T20:33:40.390Z,5.95
2022-10-07T20:36:21.265Z,6.43
2022-10-07T20:39:19.512Z,7.07
2022-10-07T20:42:06.903Z,6.15
2022-10-07T20:44:36.788Z,5.95
2022-10-07T20:47:06.242Z,6.40
2022-10-07T20:49:35.348Z,6.47
2022-10-07T20:52:06.973Z,7.38
2022-10-07T20:54:56.732Z,6.82
2022-10-07T20:57:27.462Z,7.50
2022-10-07T20:59:56.499Z,7.68
2022-10-07T21:02:29.102Z,6.90
2022-10-07T21:04:59.462Z,6.93
2022-10-07T21:07:29.555Z,6.55
2022-10-07T21:09:58.858Z,6.78
2022-10-07T21:12:27.282Z,6.68
2022-10-07T21:15:00.383Z,7.07
2022-10-07T21:17:28.868Z,6.72
2022-10-07T21:19:57.424Z,6.47
2022-10-07T21:22:27.423Z,6.95
2022-10-07T21:24:58.788Z,6.38
2022-10-07T21:27:34.794Z,7.43
2022-10-07T21:30:03.442Z,7.20
2022-10-07T21:32:31.953Z,6.57
2022-10-07T21:35:00.407Z,6.63
2022-10-07T21:37:29.714Z,6.47
2022-10-07T21:39:59.787Z,6.25
2022-10-07T21:42:28.690Z,7.05
2022-10-07T21:44:57.180Z,6.78
2022-10-07T21:47:25.860Z,6.68
2022-10-07T21:49:57.368Z,6.57
2022-10-07T21:52:26.218Z,6.90
2022-10-07T21:54:55.387Z,6.75
2022-10-07T21:57:25.623Z,6.35
2022-10-07T21:59:54.604Z,6.85
2022-10-07T22:02:24.008Z,6.85
2022-10-07T22:04:52.433Z,6.40
2022-10-07T22:07:38.316Z,6.93
2022-10-07T22:10:07.900Z,6.68
2022-10-07T22:12:37.550Z,6.88
2022-10-07T22:15:07.358Z,6.20
2022-10-07T22:17:38.104Z,6.30
2022-10-07T22:20:08.426Z,6.28
2022-10-07T22:22:36.964Z,6.28
2022-10-07T22:25:08.089Z,6.63
2022-10-07T22:27:37.731Z,6.53
2022-10-07T22:30:09.630Z,6.13
2022-10-07T22:32:38.094Z,6.38
2022-10-07T22:35:24.988Z,5.70
2022-10-07T22:37:55.161Z,6.38
2022-10-07T22:40:23.450Z,5.78
2022-10-07T22:42:53.962Z,6.18
2022-10-07T22:45:22.294Z,5.47
2022-10-07T22:47:51.304Z,5.68
2022-10-07T22:50:19.857Z,6.13
2022-10-07T22:52:49.351Z,5.80
2022-10-07T22:55:19.501Z,5.63
2022-10-07T22:57:47.894Z,6.10
2022-10-07T23:00:18.344Z,5.85
2022-10-07T23:02:47.577Z,6.28
2022-10-07T23:05:18.301Z,6.43
2022-10-07T23:07:48.670Z,6.50
2022-10-07T23:10:17.908Z,10.50
2022-10-07T23:12:46.615Z,6.05
2022-10-07T23:15:18.675Z,6.80
2022-10-07T23:17:48.519Z,6.28
2022-10-07T23:20:16.872Z,6.47
2022-10-07T23:22:45.841Z,6.43
2022-10-07T23:25:14.499Z,6.07
2022-10-07T23:27:43.182Z,6.18
2022-10-07T23:30:12.323Z,7.30
2022-10-07T23:32:40.517Z,5.93
2022-10-07T23:35:11.703Z,6.25
2022-10-07T23:37:40.293Z,6.22
2022-10-07T23:40:10.039Z,5.88
2022-10-07T23:42:41.487Z,8.30
2022-10-07T23:45:11.348Z,6.55
2022-10-07T23:47:40.032Z,5.97
2022-10-07T23:50:13.260Z,5.93
2022-10-07T23:52:41.580Z,5.63
2022-10-07T23:55:12.066Z,5.30
2022-10-07T23:57:40.666Z,5.57
